This is the latest recevied weather packets stored in our database for station/object K1RFS. If no packets are shown the sender has not sent any weather packets the latest 10 day(s).
| Time | Temp. | Humidity | Pressure | Rain* | Wind** | Luminosity | Snow |
|---|---|---|---|---|---|---|---|
| 1787538001 | 26.67° C | 34% | 1004.6 hPa | 0 mm | - | 0 W/m² | - |
| 1787537697 | 23.33° C | 40% | 1004 hPa | 3.05 mm | - | 0 W/m² | - |
| 1787537393 | 22.78° C | 58% | 1003.8 hPa | 7.87 mm | - | 0 W/m² | - |
| 1787537093 | 22.22° C | 58% | 1003.8 hPa | 9.65 mm | - | 0 W/m² | - |
| 1787536792 | 23.33° C | 60% | 1003.7 hPa | 6.1 mm | - | 1 W/m² | - |
| 1787536489 | 25° C | 45% | 1003.6 hPa | 8.89 mm | - | 1 W/m² | - |
| 1787536189 | 23.33° C | 50% | 1003.3 hPa | 11.94 mm | - | 2 W/m² | - |
| 1787535884 | 28.33° C | 44% | 1003.7 hPa | 1.27 mm | - | 3 W/m² | - |
| 1787535584 | 28.33° C | 34% | 1003.2 hPa | 0 mm | - | 4 W/m² | - |
| 1787535280 | 26.67° C | 39% | 1003.1 hPa | 0 mm | - | 5 W/m² | - |
| 1787534975 | 27.78° C | 36% | 1003.2 hPa | 0 mm | - | 5 W/m² | - |
| 1787534674 | 27.78° C | 41% | 1003.2 hPa | 0 mm | - | 13 W/m² | - |
| 1787534372 | 27.78° C | 39% | 1003.3 hPa | 0 mm | - | 10 W/m² | - |
| 1787534068 | 27.78° C | 39% | 1003.1 hPa | 0 mm | - | 12 W/m² | - |
| 1787533764 | 27.78° C | 41% | 1003 hPa | 0 mm | - | 11 W/m² | - |
| 1787533460 | 28.89° C | 46% | 1003 hPa | 0 mm | - | 10 W/m² | - |
| 1787533155 | 28.89° C | 41% | 1003 hPa | 0 mm | - | 13 W/m² | - |
| 1787532851 | 28.89° C | 46% | 1002.9 hPa | 0 mm | - | 18 W/m² | - |
| 1787532546 | 30° C | 43% | 1002.9 hPa | 0 mm | - | 19 W/m² | - |
| 1787532242 | 31.11° C | 40% | 1003.1 hPa | 0 mm | - | 21 W/m² | - |
| 1787531937 | 32.22° C | 36% | 1003 hPa | 0 mm | - | 33 W/m² | - |
| 1787531634 | 32.78° C | 33% | 1003.3 hPa | 0 mm | - | 99 W/m² | - |
| 1787531329 | 32.22° C | 33% | 1003.3 hPa | 0 mm | - | 182 W/m² | - |
| 1787531024 | 33.33° C | 30% | 1003.2 hPa | 0 mm | - | 68 W/m² | - |
| 1787530719 | 31.67° C | 31% | 1003.3 hPa | 0 mm | - | 166 W/m² | - |
* Rain latest hour (hover to see other rain measurements)
** Current wind speed in m/s (hover to see current wind gust speed)